createdAt,value
2022-08-02T00:00:37.300Z,1.45
2022-08-02T00:02:39.129Z,1.55
2022-08-02T00:04:40.795Z,1.38
2022-08-02T00:06:42.564Z,1.83
2022-08-02T00:08:44.291Z,1.60
2022-08-02T00:10:46.028Z,1.88
2022-08-02T00:12:47.741Z,1.50
2022-08-02T00:14:49.446Z,1.70
2022-08-02T00:16:51.117Z,1.65
2022-08-02T00:18:53.098Z,1.70
2022-08-02T00:20:54.740Z,1.60
2022-08-02T00:22:56.413Z,1.80
2022-08-02T00:24:58.160Z,1.55
2022-08-02T00:26:59.932Z,1.80
2022-08-02T00:29:01.536Z,1.58
2022-08-02T00:31:03.282Z,1.67
2022-08-02T00:33:08.579Z,1.80
2022-08-02T00:35:10.251Z,1.70
2022-08-02T00:37:11.881Z,1.50
2022-08-02T00:39:34.167Z,1.50
2022-08-02T00:41:45.655Z,1.70
2022-08-02T00:43:48.241Z,1.58
2022-08-02T00:46:02.687Z,1.63
2022-08-02T00:48:06.857Z,1.70
2022-08-02T00:50:08.858Z,1.73
2022-08-02T00:52:10.689Z,1.80
2022-08-02T00:54:13.026Z,1.90
2022-08-02T00:56:14.708Z,1.73
2022-08-02T00:58:16.747Z,1.80
2022-08-02T01:00:18.918Z,1.63
2022-08-02T01:02:20.948Z,1.80
2022-08-02T01:04:26.840Z,1.80
2022-08-02T01:06:33.630Z,1.70
2022-08-02T01:08:35.264Z,1.55
2022-08-02T01:10:36.963Z,1.80
2022-08-02T01:12:39.332Z,1.60
2022-08-02T01:14:42.432Z,1.90
2022-08-02T01:16:53.359Z,2.08
2022-08-02T01:19:00.236Z,1.60
2022-08-02T01:21:10.907Z,1.75
2022-08-02T01:23:40.164Z,1.80
2022-08-02T01:26:01.655Z,1.70
2022-08-02T01:28:17.984Z,1.73
2022-08-02T01:30:19.844Z,2.05
2022-08-02T01:32:26.165Z,2.03
2022-08-02T01:34:36.466Z,1.63
2022-08-02T01:36:44.831Z,1.90
2022-08-02T01:38:49.471Z,1.95
2022-08-02T01:40:52.287Z,2.13
2022-08-02T01:42:55.067Z,2.17
2022-08-02T01:44:57.327Z,2.37
2022-08-02T01:47:04.140Z,2.25
2022-08-02T01:49:08.560Z,2.45
2022-08-02T01:51:15.200Z,2.28
2022-08-02T01:53:19.152Z,2.80
2022-08-02T01:55:35.255Z,2.53
2022-08-02T01:57:57.519Z,2.33
2022-08-02T02:00:01.639Z,2.60
2022-08-02T02:02:04.039Z,2.50
2022-08-02T02:04:08.407Z,2.15
2022-08-02T02:06:10.806Z,2.20
2022-08-02T02:08:12.789Z,2.10
2022-08-02T02:10:16.243Z,2.22
2022-08-02T02:12:18.654Z,2.72
2022-08-02T02:14:21.276Z,2.50
2022-08-02T02:16:23.045Z,2.50
2022-08-02T02:18:26.090Z,2.50
2022-08-02T02:20:27.773Z,3.08
2022-08-02T02:22:29.643Z,2.50
2022-08-02T02:24:31.668Z,2.50
2022-08-02T02:26:35.002Z,2.67
2022-08-02T02:28:38.571Z,2.80
2022-08-02T02:30:43.212Z,3.03
2022-08-02T02:32:46.115Z,3.22
2022-08-02T02:34:50.183Z,3.70
2022-08-02T02:36:52.273Z,3.72
2022-08-02T02:38:56.936Z,3.15
2022-08-02T02:41:03.621Z,3.67
2022-08-02T02:43:06.632Z,2.80
2022-08-02T02:45:10.031Z,3.00
2022-08-02T02:47:12.023Z,3.20
2022-08-02T02:49:15.302Z,3.00
2022-08-02T02:51:17.105Z,2.78
2022-08-02T02:53:19.278Z,3.10
2022-08-02T02:55:22.110Z,2.95
2022-08-02T02:57:24.364Z,2.83
2022-08-02T02:59:26.510Z,2.65
2022-08-02T03:01:55.523Z,2.72
2022-08-02T03:03:50.060Z,2.45
2022-08-02T03:05:51.812Z,3.10
2022-08-02T03:07:54.176Z,2.70
2022-08-02T03:09:55.894Z,2.67
2022-08-02T03:11:57.793Z,2.80
2022-08-02T03:14:00.968Z,3.13
2022-08-02T03:16:03.438Z,2.42
2022-08-02T03:18:07.872Z,3.08
2022-08-02T03:20:14.780Z,3.15
2022-08-02T03:22:16.447Z,2.92
2022-08-02T03:24:28.076Z,2.92
2022-08-02T03:26:30.108Z,2.92
2022-08-02T03:28:31.914Z,2.75
2022-08-02T03:30:33.638Z,2.88
2022-08-02T03:32:36.235Z,2.85
2022-08-02T03:34:37.835Z,3.47
2022-08-02T03:36:40.656Z,2.95
2022-08-02T03:38:43.070Z,3.03
2022-08-02T03:40:45.555Z,3.20
2022-08-02T03:42:48.210Z,2.67
2022-08-02T03:44:50.196Z,2.97
2022-08-02T03:46:52.522Z,3.00
2022-08-02T03:48:55.037Z,3.60
2022-08-02T03:50:57.112Z,3.10
2022-08-02T03:52:59.883Z,2.70
2022-08-02T03:55:01.598Z,3.43
2022-08-02T03:57:07.460Z,2.95
2022-08-02T03:59:13.830Z,2.97
2022-08-02T04:01:15.601Z,3.33
2022-08-02T04:03:19.937Z,3.28
2022-08-02T04:05:21.941Z,3.50
2022-08-02T04:08:34.489Z,2.97
2022-08-02T04:09:45.222Z,3.15
2022-08-02T04:11:46.856Z,3.55
2022-08-02T04:13:48.586Z,3.35
2022-08-02T04:15:54.773Z,3.45
2022-08-02T04:17:57.378Z,3.70
2022-08-02T04:20:04.381Z,3.25
2022-08-02T04:22:08.264Z,3.85
2022-08-02T04:24:11.858Z,3.83
2022-08-02T04:26:26.825Z,3.80
2022-08-02T04:28:30.908Z,3.53
2022-08-02T04:30:33.039Z,4.35
2022-08-02T04:32:35.584Z,3.97
2022-08-02T04:34:37.262Z,4.15
2022-08-02T04:36:39.030Z,3.70
2022-08-02T04:38:42.106Z,3.78
2022-08-02T04:40:54.457Z,3.58
2022-08-02T04:42:56.153Z,3.38
2022-08-02T04:44:58.542Z,4.10
2022-08-02T04:47:06.747Z,3.80
2022-08-02T04:49:09.063Z,4.22
2022-08-02T04:51:10.787Z,3.85
2022-08-02T04:53:12.709Z,3.83
2022-08-02T04:55:14.362Z,4.15
2022-08-02T04:57:34.555Z,4.95
2022-08-02T04:59:36.196Z,3.97
2022-08-02T05:01:39.453Z,4.03
2022-08-02T05:03:41.146Z,3.80
2022-08-02T05:05:42.935Z,3.70
2022-08-02T05:07:44.855Z,3.58
2022-08-02T05:09:46.540Z,4.13
2022-08-02T05:11:53.362Z,3.60
2022-08-02T05:13:57.906Z,3.90
2022-08-02T05:16:03.186Z,4.65
2022-08-02T05:18:05.049Z,4.20
2022-08-02T05:20:07.088Z,3.97
2022-08-02T05:22:09.209Z,4.35
2022-08-02T05:24:11.079Z,5.40
2022-08-02T05:26:12.677Z,5.80
2022-08-02T05:28:14.367Z,6.00
2022-08-02T05:30:16.225Z,6.95
2022-08-02T05:32:18.680Z,6.80
2022-08-02T05:34:20.380Z,5.40
2022-08-02T05:36:22.125Z,4.93
2022-08-02T05:38:26.025Z,2.95
2022-08-02T05:40:28.177Z,3.15
2022-08-02T05:42:32.923Z,2.83
2022-08-02T05:44:34.663Z,2.70
2022-08-02T05:46:36.296Z,2.42
2022-08-02T05:48:38.821Z,2.58
2022-08-02T05:50:45.120Z,2.58
2022-08-02T05:52:50.890Z,2.30
2022-08-02T05:55:07.184Z,2.38
2022-08-02T05:57:17.966Z,2.28
2022-08-02T05:59:37.867Z,2.10
2022-08-02T06:01:41.263Z,2.90
2022-08-02T06:03:51.593Z,2.45
2022-08-02T06:06:00.780Z,2.28
2022-08-02T06:08:04.464Z,2.08
2022-08-02T06:10:10.412Z,2.17
2022-08-02T06:12:13.645Z,2.20
2022-08-02T06:14:15.612Z,2.10
2022-08-02T06:16:18.090Z,2.40
2022-08-02T06:18:34.454Z,1.98
2022-08-02T06:20:37.146Z,2.28
2022-08-02T06:22:44.855Z,2.30
2022-08-02T06:24:48.037Z,2.08
2022-08-02T06:26:55.075Z,1.80
2022-08-02T06:28:58.470Z,1.92
2022-08-02T06:31:00.284Z,2.28
2022-08-02T06:33:02.235Z,2.03
2022-08-02T06:35:05.287Z,2.10
2022-08-02T06:37:18.986Z,1.92
2022-08-02T06:39:28.190Z,2.20
2022-08-02T06:41:32.412Z,1.80
2022-08-02T06:43:45.864Z,1.98
2022-08-02T06:45:47.584Z,1.65
2022-08-02T06:47:49.330Z,2.13
2022-08-02T06:49:54.235Z,1.83
2022-08-02T06:51:56.588Z,2.10
2022-08-02T06:53:58.173Z,1.77
2022-08-02T06:55:59.874Z,2.20
2022-08-02T06:58:01.555Z,2.10
2022-08-02T07:00:08.731Z,2.17
2022-08-02T07:02:12.167Z,1.77
2022-08-02T07:04:15.604Z,2.40
2022-08-02T07:06:19.219Z,1.67
2022-08-02T07:08:21.268Z,2.25
2022-08-02T07:10:23.097Z,2.05
2022-08-02T07:12:25.006Z,1.70
2022-08-02T07:14:26.888Z,1.90
2022-08-02T07:16:28.608Z,2.00
2022-08-02T07:18:30.423Z,1.90
2022-08-02T07:20:32.585Z,1.90
2022-08-02T07:22:34.372Z,1.75
2022-08-02T07:24:36.268Z,2.58
2022-08-02T07:26:55.242Z,6.45
2022-08-02T07:28:59.498Z,3.13
2022-08-02T07:31:01.314Z,4.95
2022-08-02T07:33:03.776Z,3.30
2022-08-02T07:35:07.451Z,2.30
2022-08-02T07:37:18.664Z,1.80
2022-08-02T07:39:31.466Z,1.60
2022-08-02T07:41:35.365Z,1.67
2022-08-02T07:43:37.189Z,5.07
2022-08-02T07:45:55.596Z,9.95
2022-08-02T07:47:58.988Z,2.70
2022-08-02T07:50:00.636Z,2.35
2022-08-02T07:52:02.348Z,1.98
2022-08-02T07:54:04.879Z,1.60
2022-08-02T07:56:06.708Z,1.67
2022-08-02T07:58:12.714Z,2.33
2022-08-02T08:00:17.313Z,1.70
2022-08-02T08:02:19.313Z,1.70
2022-08-02T08:04:20.957Z,1.52
2022-08-02T08:06:28.557Z,1.10
2022-08-02T08:08:30.874Z,1.40
2022-08-02T08:10:32.556Z,1.05
2022-08-02T08:12:34.398Z,1.40
2022-08-02T08:14:36.508Z,1.60
2022-08-02T08:16:38.181Z,1.55
2022-08-02T08:18:39.858Z,1.63
2022-08-02T08:20:41.444Z,1.70
2022-08-02T08:22:43.386Z,1.67
2022-08-02T08:24:45.495Z,1.70
2022-08-02T08:26:47.148Z,1.52
2022-08-02T08:28:49.083Z,1.20
2022-08-02T08:30:50.750Z,2.00
2022-08-02T08:32:52.476Z,1.35
2022-08-02T08:34:54.153Z,1.75
2022-08-02T08:36:55.767Z,1.55
2022-08-02T08:38:57.472Z,1.77
2022-08-02T08:40:59.222Z,1.85
2022-08-02T08:43:00.899Z,1.55
2022-08-02T08:45:02.714Z,1.67
2022-08-02T08:47:05.798Z,1.48
2022-08-02T08:49:26.016Z,1.42
2022-08-02T08:51:31.721Z,1.48
2022-08-02T08:53:39.768Z,1.45
2022-08-02T08:55:43.492Z,1.50
2022-08-02T08:57:45.586Z,1.30
2022-08-02T08:59:47.764Z,1.50
2022-08-02T09:01:51.392Z,1.60
2022-08-02T09:03:53.288Z,1.30
2022-08-02T09:05:58.145Z,1.35
2022-08-02T09:07:59.768Z,1.40
2022-08-02T09:10:01.484Z,1.48
2022-08-02T09:12:16.830Z,1.08
2022-08-02T09:14:29.327Z,1.60
2022-08-02T09:16:32.962Z,1.33
2022-08-02T09:18:43.968Z,1.08
2022-08-02T09:20:54.184Z,1.23
2022-08-02T09:23:12.235Z,1.17
2022-08-02T09:25:15.883Z,1.33
2022-08-02T09:27:19.984Z,1.23
2022-08-02T09:29:23.722Z,1.30
2022-08-02T09:31:25.973Z,1.15
2022-08-02T09:33:28.475Z,1.00
2022-08-02T09:36:06.433Z,1.13
2022-08-02T09:38:20.696Z,1.33
2022-08-02T09:40:35.763Z,1.00
2022-08-02T09:42:37.582Z,1.17
2022-08-02T09:44:39.312Z,1.50
2022-08-02T09:46:45.421Z,1.30
2022-08-02T09:48:54.102Z,1.00
2022-08-02T09:50:56.647Z,1.10
2022-08-02T09:52:58.912Z,1.40
2022-08-02T09:55:06.883Z,1.35
2022-08-02T09:57:08.751Z,1.30
2022-08-02T09:59:11.269Z,1.20
2022-08-02T10:01:13.163Z,1.30
2022-08-02T10:03:21.964Z,0.98
2022-08-02T10:05:30.488Z,1.38
2022-08-02T10:07:37.377Z,1.30
2022-08-02T10:09:46.426Z,1.02
2022-08-02T10:11:49.646Z,1.08
2022-08-02T10:13:51.891Z,1.00
2022-08-02T10:15:53.606Z,1.08
2022-08-02T10:17:55.358Z,1.33
2022-08-02T10:20:02.600Z,1.05
2022-08-02T10:22:07.812Z,1.13
2022-08-02T10:24:11.936Z,1.30
2022-08-02T10:26:19.335Z,1.20
2022-08-02T10:28:27.401Z,1.27
2022-08-02T10:30:29.641Z,1.25
2022-08-02T10:32:36.995Z,1.10
2022-08-02T10:34:44.399Z,1.10
2022-08-02T10:36:53.267Z,1.42
2022-08-02T10:38:58.671Z,3.42
2022-08-02T10:41:00.466Z,1.60
2022-08-02T10:43:02.142Z,2.92
2022-08-02T10:45:12.031Z,1.10
2022-08-02T10:47:26.463Z,1.25
2022-08-02T10:49:44.182Z,1.52
2022-08-02T10:51:59.562Z,1.17
2022-08-02T10:54:10.463Z,1.13
2022-08-02T10:56:12.110Z,0.82
2022-08-02T10:58:20.485Z,1.17
2022-08-02T11:00:28.477Z,1.30
2022-08-02T11:02:42.032Z,1.17
2022-08-02T11:04:43.640Z,0.95
2022-08-02T11:07:07.963Z,1.15
2022-08-02T11:09:34.179Z,0.98
2022-08-02T11:12:03.480Z,1.08
2022-08-02T11:14:09.347Z,1.20
2022-08-02T11:16:11.966Z,0.90
2022-08-02T11:18:13.873Z,0.90
2022-08-02T11:20:17.000Z,1.20
2022-08-02T11:22:23.839Z,2.10
2022-08-02T11:24:30.075Z,1.50
2022-08-02T11:26:31.692Z,1.27
2022-08-02T11:28:33.459Z,1.38
2022-08-02T11:30:35.237Z,1.25
2022-08-02T11:32:36.913Z,1.10
2022-08-02T11:34:39.429Z,1.08
2022-08-02T11:36:48.692Z,1.43
2022-08-02T11:38:50.337Z,1.13
2022-08-02T11:40:57.441Z,1.25
2022-08-02T11:42:59.319Z,1.30
2022-08-02T11:45:01.580Z,0.90
2022-08-02T11:47:03.575Z,1.10
2022-08-02T11:49:16.852Z,1.15
2022-08-02T11:51:18.943Z,1.00
2022-08-02T11:53:20.592Z,0.98
2022-08-02T11:55:30.201Z,1.00
2022-08-02T11:58:03.228Z,1.15
2022-08-02T11:59:55.771Z,1.00
2022-08-02T12:01:57.434Z,1.08
2022-08-02T12:04:01.018Z,1.00
2022-08-02T12:06:06.398Z,1.00
2022-08-02T12:08:08.785Z,0.90
2022-08-02T12:10:22.185Z,1.00
2022-08-02T12:12:23.864Z,0.90
2022-08-02T12:14:27.785Z,1.25
2022-08-02T12:16:58.324Z,1.30
2022-08-02T12:19:18.466Z,1.00
2022-08-02T12:21:24.546Z,1.00
2022-08-02T12:23:26.564Z,0.93
2022-08-02T12:25:33.590Z,0.88
2022-08-02T12:27:38.252Z,1.00
2022-08-02T12:29:57.961Z,0.90
2022-08-02T12:32:01.176Z,0.73
2022-08-02T12:34:15.050Z,0.80
2022-08-02T12:36:18.472Z,0.70
2022-08-02T12:38:20.471Z,1.00
2022-08-02T12:40:25.430Z,0.70
2022-08-02T12:42:27.455Z,1.27
2022-08-02T12:44:29.285Z,0.88
2022-08-02T12:46:32.018Z,9.68
2022-08-02T12:49:02.348Z,0.90
2022-08-02T12:51:50.772Z,0.60
2022-08-02T12:53:58.812Z,0.68
2022-08-02T12:56:03.855Z,1.08
2022-08-02T12:58:05.836Z,1.00
2022-08-02T13:00:09.796Z,0.93
2022-08-02T13:02:12.888Z,1.00
2022-08-02T13:04:16.575Z,1.10
2022-08-02T13:08:41.437Z,1.20
2022-08-02T13:10:43.606Z,1.10
2022-08-02T13:12:45.907Z,0.90
2022-08-02T13:14:47.664Z,1.08
2022-08-02T13:16:49.604Z,1.05
2022-08-02T13:18:51.310Z,0.90
2022-08-02T13:20:54.232Z,0.80
2022-08-02T13:22:56.158Z,0.85
2022-08-02T13:25:06.257Z,0.80
2022-08-02T13:27:09.198Z,1.25
2022-08-02T13:29:12.537Z,1.20
2022-08-02T13:31:35.522Z,1.33
2022-08-02T13:33:35.856Z,0.95
2022-08-02T13:35:37.503Z,1.13
2022-08-02T13:37:41.892Z,0.80
2022-08-02T13:39:51.477Z,0.98
2022-08-02T13:42:06.036Z,1.00
2022-08-02T13:44:10.778Z,0.90
2022-08-02T13:46:13.168Z,1.13
2022-08-02T13:48:16.676Z,1.17
2022-08-02T13:50:20.051Z,1.20
2022-08-02T13:52:21.766Z,1.10
2022-08-02T13:54:23.436Z,1.30
2022-08-02T13:56:35.184Z,1.10
2022-08-02T13:58:37.751Z,1.20
2022-08-02T14:00:39.513Z,1.05
2022-08-02T14:02:41.201Z,0.88
2022-08-02T14:04:43.184Z,1.00
2022-08-02T14:06:44.863Z,1.10
2022-08-02T14:08:46.537Z,0.80
2022-08-02T14:10:48.980Z,0.90
2022-08-02T14:12:56.491Z,0.80
2022-08-02T14:14:58.527Z,1.00
2022-08-02T14:17:00.152Z,0.98
2022-08-02T14:19:05.386Z,1.10
2022-08-02T14:21:12.380Z,0.88
2022-08-02T14:23:14.536Z,1.00
2022-08-02T14:25:16.230Z,1.10
2022-08-02T14:27:17.935Z,1.10
2022-08-02T14:29:19.626Z,0.82
2022-08-02T14:31:21.304Z,1.27
2022-08-02T14:33:23.435Z,1.00
2022-08-02T14:35:25.185Z,0.98
2022-08-02T14:37:26.798Z,1.00
2022-08-02T14:39:28.489Z,1.10
2022-08-02T14:41:58.887Z,1.10
2022-08-02T14:44:06.091Z,0.95
2022-08-02T14:46:07.930Z,0.90
2022-08-02T14:48:12.533Z,1.00
2022-08-02T14:50:14.615Z,1.10
2022-08-02T14:52:17.000Z,1.00
2022-08-02T14:54:18.711Z,0.80
2022-08-02T14:56:20.836Z,0.98
2022-08-02T14:58:22.548Z,0.93
2022-08-02T15:00:24.192Z,1.00
2022-08-02T15:02:26.060Z,1.25
2022-08-02T15:04:28.059Z,0.95
2022-08-02T15:06:35.704Z,1.13
2022-08-02T15:08:37.670Z,0.90
2022-08-02T15:10:40.256Z,1.10
2022-08-02T15:12:41.918Z,0.88
2022-08-02T15:14:43.911Z,0.80
2022-08-02T15:16:56.028Z,0.90
2022-08-02T15:18:59.179Z,2.05
2022-08-02T15:21:00.938Z,1.35
2022-08-02T15:23:09.722Z,0.90
2022-08-02T15:25:14.460Z,1.17
2022-08-02T15:27:17.350Z,0.77
2022-08-02T15:29:20.237Z,1.20
2022-08-02T15:31:30.761Z,1.00
2022-08-02T15:33:35.160Z,1.50
2022-08-02T15:35:36.848Z,1.55
2022-08-02T15:37:41.446Z,1.55
2022-08-02T15:39:43.953Z,1.70
2022-08-02T15:41:45.635Z,1.40
2022-08-02T15:44:00.276Z,1.73
2022-08-02T15:46:03.220Z,1.63
2022-08-02T15:48:05.207Z,1.65
2022-08-02T15:50:07.099Z,1.50
2022-08-02T15:52:12.848Z,0.90
2022-08-02T15:54:14.663Z,1.08
2022-08-02T15:56:16.286Z,1.27
2022-08-02T15:58:23.947Z,1.35
2022-08-02T16:00:25.628Z,1.10
2022-08-02T16:02:27.451Z,0.90
2022-08-02T16:04:29.251Z,1.30
2022-08-02T16:06:30.865Z,1.13
2022-08-02T16:08:32.530Z,0.98
2022-08-02T16:10:34.579Z,1.15
2022-08-02T16:12:36.226Z,1.63
2022-08-02T16:14:37.899Z,0.90
2022-08-02T16:16:40.423Z,0.80
2022-08-02T16:18:42.119Z,1.10
2022-08-02T16:20:43.718Z,2.85
2022-08-02T16:22:45.336Z,1.70
2022-08-02T16:24:47.536Z,1.70
2022-08-02T16:26:49.613Z,1.65
2022-08-02T16:28:54.415Z,1.17
2022-08-02T16:31:10.412Z,1.23
2022-08-02T16:33:13.172Z,1.10
2022-08-02T16:35:14.904Z,1.40
2022-08-02T16:37:16.661Z,1.00
2022-08-02T16:39:18.447Z,1.30
2022-08-02T16:41:20.489Z,1.42
2022-08-02T16:43:22.303Z,1.20
2022-08-02T16:45:23.998Z,1.13
2022-08-02T16:47:43.232Z,1.10
2022-08-02T16:50:04.600Z,1.08
2022-08-02T16:52:07.675Z,1.20
2022-08-02T16:54:11.330Z,1.40
2022-08-02T16:56:13.087Z,1.45
2022-08-02T17:00:18.838Z,1.60
2022-08-02T17:02:20.505Z,1.80
2022-08-02T17:04:27.380Z,1.05
2022-08-02T17:06:30.434Z,1.38
2022-08-02T17:08:32.470Z,1.52
2022-08-02T17:10:34.530Z,1.10
2022-08-02T17:12:36.658Z,1.90
2022-08-02T17:14:42.096Z,2.08
2022-08-02T17:16:57.402Z,1.42
2022-08-02T17:19:01.062Z,1.77
2022-08-02T17:21:04.804Z,1.50
2022-08-02T17:23:06.497Z,1.30
2022-08-02T17:25:11.118Z,1.45
2022-08-02T17:27:13.488Z,1.73
2022-08-02T17:29:18.108Z,1.60
2022-08-02T17:31:19.926Z,1.20
2022-08-02T17:33:31.215Z,2.08
2022-08-02T17:35:52.012Z,1.77
2022-08-02T17:37:59.962Z,2.72
2022-08-02T17:40:01.954Z,3.17
2022-08-02T17:42:06.223Z,1.77
2022-08-02T17:44:08.626Z,1.40
2022-08-02T17:46:10.517Z,1.00
2022-08-02T17:48:14.918Z,1.00
2022-08-02T17:50:17.096Z,1.08
2022-08-02T17:52:51.700Z,1.27
2022-08-02T17:54:41.679Z,1.27
2022-08-02T17:56:48.511Z,1.20
2022-08-02T17:58:53.685Z,1.23
2022-08-02T18:00:56.994Z,1.40
2022-08-02T18:03:00.077Z,1.30
2022-08-02T18:05:01.801Z,1.45
2022-08-02T18:07:09.814Z,1.48
2022-08-02T18:09:12.009Z,1.48
2022-08-02T18:11:13.736Z,1.60
2022-08-02T18:13:15.896Z,1.30
2022-08-02T18:15:20.129Z,5.85
2022-08-02T18:17:22.022Z,4.22
2022-08-02T18:19:23.680Z,5.25
2022-08-02T18:21:44.405Z,2.90
2022-08-02T18:25:55.347Z,2.42
2022-08-02T18:27:57.137Z,1.40
2022-08-02T18:30:04.219Z,1.40
2022-08-02T18:32:11.407Z,1.73
2022-08-02T18:34:13.842Z,1.52
2022-08-02T18:36:24.566Z,1.95
2022-08-02T18:38:28.438Z,3.05
2022-08-02T18:40:30.278Z,2.60
2022-08-02T18:42:31.977Z,2.50
2022-08-02T18:44:33.771Z,2.67
2022-08-02T18:46:35.452Z,2.53
2022-08-02T18:48:38.003Z,2.97
2022-08-02T18:50:39.881Z,3.05
2022-08-02T18:52:41.900Z,3.55
2022-08-02T18:54:43.608Z,3.45
2022-08-02T18:56:47.530Z,3.22
2022-08-02T18:58:49.282Z,3.42
2022-08-02T19:00:51.493Z,4.10
2022-08-02T19:02:54.193Z,3.70
2022-08-02T19:04:57.565Z,4.10
2022-08-02T19:07:07.407Z,3.70
2022-08-02T19:09:13.132Z,3.60
2022-08-02T19:11:15.288Z,3.00
2022-08-02T19:13:18.435Z,3.70
2022-08-02T19:15:20.172Z,2.85
2022-08-02T19:17:55.535Z,2.83
2022-08-02T19:19:44.159Z,3.03
2022-08-02T19:22:19.025Z,3.55
2022-08-02T19:24:07.809Z,3.03
2022-08-02T19:26:10.421Z,2.85
2022-08-02T19:28:12.150Z,3.33
2022-08-02T19:30:14.478Z,2.83
2022-08-02T19:32:41.854Z,2.83
2022-08-02T19:34:38.645Z,2.53
2022-08-02T19:36:40.837Z,2.40
2022-08-02T19:38:45.491Z,2.20
2022-08-02T19:40:51.306Z,2.50
2022-08-02T19:44:26.589Z,2.30
2022-08-02T19:45:15.682Z,1.70
2022-08-02T19:47:19.251Z,1.77
2022-08-02T19:49:39.994Z,1.70
2022-08-02T19:51:49.610Z,1.90
2022-08-02T19:56:03.000Z,1.80
2022-08-02T19:58:05.824Z,1.90
2022-08-02T20:00:11.666Z,1.70
2022-08-02T20:02:15.859Z,1.85
2022-08-02T20:04:22.893Z,1.60
2022-08-02T20:06:29.701Z,1.88
2022-08-02T20:08:35.837Z,1.60
2022-08-02T20:10:40.758Z,1.98
2022-08-02T20:12:47.600Z,1.63
2022-08-02T20:14:51.239Z,1.80
2022-08-02T20:18:56.380Z,1.55
2022-08-02T20:20:58.330Z,1.73
2022-08-02T20:23:33.742Z,1.77
2022-08-02T20:25:36.105Z,2.33
2022-08-02T20:27:51.272Z,2.17
2022-08-02T20:29:53.184Z,2.35
2022-08-02T20:31:54.913Z,2.17
2022-08-02T20:33:57.752Z,2.22
2022-08-02T20:36:01.682Z,1.65
2022-08-02T20:38:04.796Z,1.63
2022-08-02T20:40:07.434Z,1.80
2022-08-02T20:42:23.025Z,1.80
2022-08-02T20:44:30.748Z,1.85
2022-08-02T20:46:47.360Z,1.58
2022-08-02T20:48:50.016Z,1.50
2022-08-02T20:50:52.320Z,2.00
2022-08-02T20:52:55.015Z,1.52
2022-08-02T20:54:57.619Z,2.10
2022-08-02T20:56:59.363Z,1.63
2022-08-02T20:59:15.989Z,1.80
2022-08-02T21:01:17.926Z,2.10
2022-08-02T21:03:23.175Z,1.40
2022-08-02T21:05:26.796Z,1.52
2022-08-02T21:07:47.858Z,1.67
2022-08-02T21:09:55.077Z,1.60
2022-08-02T21:11:57.277Z,1.73
2022-08-02T21:14:08.663Z,1.45
2022-08-02T21:16:13.698Z,1.90
2022-08-02T21:18:22.878Z,1.55
2022-08-02T21:20:30.653Z,1.55
2022-08-02T21:22:32.358Z,1.60
2022-08-02T21:24:34.080Z,1.50
2022-08-02T21:26:35.786Z,1.65
2022-08-02T21:28:44.182Z,1.55
2022-08-02T21:30:46.944Z,1.77
2022-08-02T21:32:50.765Z,1.55
2022-08-02T21:34:53.216Z,1.67
2022-08-02T21:36:56.020Z,1.55
2022-08-02T21:38:58.005Z,1.35
2022-08-02T21:40:59.662Z,1.25
2022-08-02T21:43:01.320Z,2.00
2022-08-02T21:45:17.273Z,1.98
2022-08-02T21:47:27.506Z,1.60
2022-08-02T21:50:09.448Z,1.60
2022-08-02T21:51:51.827Z,1.75
2022-08-02T21:54:18.602Z,1.60
2022-08-02T21:56:15.172Z,1.38
2022-08-02T21:58:20.087Z,1.30
2022-08-02T22:00:22.541Z,1.50
2022-08-02T22:02:31.286Z,1.30
2022-08-02T22:04:33.082Z,1.40
2022-08-02T22:06:35.158Z,1.48
2022-08-02T22:08:38.154Z,1.63
2022-08-02T22:10:58.424Z,1.30
2022-08-02T22:13:01.566Z,1.17
2022-08-02T22:15:05.693Z,1.55
2022-08-02T22:17:13.821Z,1.25
2022-08-02T22:19:15.630Z,1.30
2022-08-02T22:21:17.641Z,1.30
2022-08-02T22:23:22.534Z,1.20
2022-08-02T22:25:40.725Z,1.50
2022-08-02T22:28:11.778Z,1.48
2022-08-02T22:30:04.069Z,1.67
2022-08-02T22:32:07.705Z,1.48
2022-08-02T22:34:26.945Z,1.42
2022-08-02T22:36:43.422Z,1.30
2022-08-02T22:38:46.394Z,1.25
2022-08-02T22:40:48.935Z,1.17
2022-08-02T22:42:50.930Z,1.05
2022-08-02T22:44:52.549Z,1.40
2022-08-02T22:46:54.718Z,1.55
2022-08-02T22:48:56.808Z,1.48
2022-08-02T22:50:58.615Z,1.20
2022-08-02T22:53:00.667Z,1.48
2022-08-02T22:55:05.320Z,1.35
2022-08-02T22:57:11.553Z,1.30
2022-08-02T23:01:17.651Z,1.52
2022-08-02T23:03:19.319Z,1.60
2022-08-02T23:05:21.801Z,1.38
2022-08-02T23:07:23.515Z,1.67
2022-08-02T23:09:25.124Z,1.50
2022-08-02T23:11:26.878Z,1.48
2022-08-02T23:13:28.750Z,1.63
2022-08-02T23:15:50.427Z,1.48
2022-08-02T23:18:10.570Z,1.13
2022-08-02T23:20:15.465Z,1.30
2022-08-02T23:22:29.215Z,1.33
2022-08-02T23:24:33.903Z,1.20
2022-08-02T23:26:35.605Z,1.60
2022-08-02T23:28:37.459Z,1.30
2022-08-02T23:30:39.265Z,1.30
2022-08-02T23:32:41.040Z,1.30
2022-08-02T23:34:43.334Z,1.45
2022-08-02T23:36:45.037Z,1.20
2022-08-02T23:38:46.784Z,1.10
2022-08-02T23:40:48.458Z,1.10
2022-08-02T23:42:50.156Z,1.05
2022-08-02T23:44:52.758Z,1.40
2022-08-02T23:46:55.798Z,1.10
2022-08-02T23:48:57.468Z,1.27
2022-08-02T23:50:59.196Z,1.35
2022-08-02T23:53:00.852Z,1.25
2022-08-02T23:55:02.496Z,1.30
2022-08-02T23:57:21.096Z,1.10
2022-08-02T23:59:23.250Z,1.13
